sensor_id;sensor_type;location;lat;lon;timestamp;temperature;humidity
13072;DHT22;6602;58.934;11.166;2023-10-31T00:00:56;1.40;99.90
13072;DHT22;6602;58.934;11.166;2023-10-31T00:05:59;1.60;99.90
13072;DHT22;6602;58.934;11.166;2023-10-31T00:11:00;1.40;99.90
13072;DHT22;6602;58.934;11.166;2023-10-31T00:16:11;1.60;99.90
13072;DHT22;6602;58.934;11.166;2023-10-31T00:21:12;1.50;99.90
13072;DHT22;6602;58.934;11.166;2023-10-31T00:26:14;1.50;99.90
13072;DHT22;6602;58.934;11.166;2023-10-31T00:31:15;1.60;99.90
13072;DHT22;6602;58.934;11.166;2023-10-31T00:36:16;1.60;99.90
13072;DHT22;6602;58.934;11.166;2023-10-31T00:41:17;1.60;99.90
13072;DHT22;6602;58.934;11.166;2023-10-31T00:46:22;1.60;99.90
13072;DHT22;6602;58.934;11.166;2023-10-31T00:51:32;1.60;99.90
13072;DHT22;6602;58.934;11.166;2023-10-31T00:56:41;1.60;99.90
13072;DHT22;6602;58.934;11.166;2023-10-31T01:01:45;1.60;99.90
13072;DHT22;6602;58.934;11.166;2023-10-31T01:06:49;1.60;99.90
13072;DHT22;6602;58.934;11.166;2023-10-31T01:11:54;1.50;99.90
13072;DHT22;6602;58.934;11.166;2023-10-31T01:17:06;1.60;99.90
13072;DHT22;6602;58.934;11.166;2023-10-31T01:22:14;1.60;99.90
13072;DHT22;6602;58.934;11.166;2023-10-31T01:27:33;1.60;99.90
13072;DHT22;6602;58.934;11.166;2023-10-31T01:32:48;1.50;99.90
13072;DHT22;6602;58.934;11.166;2023-10-31T01:37:54;1.50;99.90
13072;DHT22;6602;58.934;11.166;2023-10-31T01:43:38;1.50;99.90
13072;DHT22;6602;58.934;11.166;2023-10-31T01:48:41;1.60;99.90
13072;DHT22;6602;58.934;11.166;2023-10-31T01:53:46;1.50;99.90
13072;DHT22;6602;58.934;11.166;2023-10-31T01:58:57;1.50;99.90
13072;DHT22;6602;58.934;11.166;2023-10-31T02:04:07;1.40;99.90
13072;DHT22;6602;58.934;11.166;2023-10-31T02:09:20;1.40;99.90
13072;DHT22;6602;58.934;11.166;2023-10-31T02:14:27;1.50;99.90
13072;DHT22;6602;58.934;11.166;2023-10-31T02:19:33;1.30;99.90
13072;DHT22;6602;58.934;11.166;2023-10-31T02:24:53;1.40;99.90
13072;DHT22;6602;58.934;11.166;2023-10-31T02:29:57;1.50;99.90
13072;DHT22;6602;58.934;11.166;2023-10-31T02:35:00;1.40;99.90
13072;DHT22;6602;58.934;11.166;2023-10-31T02:40:11;1.40;99.90
13072;DHT22;6602;58.934;11.166;2023-10-31T02:45:33;1.30;99.90
13072;DHT22;6602;58.934;11.166;2023-10-31T02:50:35;1.50;99.90
13072;DHT22;6602;58.934;11.166;2023-10-31T02:55:36;1.40;99.90
13072;DHT22;6602;58.934;11.166;2023-10-31T03:00:37;1.50;99.90
13072;DHT22;6602;58.934;11.166;2023-10-31T03:05:38;1.40;99.90
13072;DHT22;6602;58.934;11.166;2023-10-31T03:10:41;1.50;99.90
13072;DHT22;6602;58.934;11.166;2023-10-31T03:15:42;1.50;99.90
13072;DHT22;6602;58.934;11.166;2023-10-31T03:20:45;1.40;99.90
13072;DHT22;6602;58.934;11.166;2023-10-31T03:25:48;1.40;99.90
13072;DHT22;6602;58.934;11.166;2023-10-31T03:30:49;1.30;99.90
13072;DHT22;6602;58.934;11.166;2023-10-31T03:35:50;1.40;99.90
13072;DHT22;6602;58.934;11.166;2023-10-31T03:40:56;1.40;99.90
13072;DHT22;6602;58.934;11.166;2023-10-31T03:45:57;1.40;99.90
13072;DHT22;6602;58.934;11.166;2023-10-31T03:50:57;1.30;99.90
13072;DHT22;6602;58.934;11.166;2023-10-31T03:55:59;1.30;99.90
13072;DHT22;6602;58.934;11.166;2023-10-31T04:01:21;1.30;99.90
13072;DHT22;6602;58.934;11.166;2023-10-31T04:06:22;1.40;99.90
13072;DHT22;6602;58.934;11.166;2023-10-31T04:11:23;1.30;99.90
13072;DHT22;6602;58.934;11.166;2023-10-31T04:16:24;1.20;99.90
13072;DHT22;6602;58.934;11.166;2023-10-31T04:21:25;1.30;99.90
13072;DHT22;6602;58.934;11.166;2023-10-31T04:26:26;1.30;99.90
13072;DHT22;6602;58.934;11.166;2023-10-31T04:31:26;1.20;99.90
13072;DHT22;6602;58.934;11.166;2023-10-31T04:36:27;1.30;99.90
13072;DHT22;6602;58.934;11.166;2023-10-31T04:41:28;1.30;99.90
13072;DHT22;6602;58.934;11.166;2023-10-31T04:46:29;1.20;99.90
13072;DHT22;6602;58.934;11.166;2023-10-31T04:51:36;1.30;99.90
13072;DHT22;6602;58.934;11.166;2023-10-31T04:56:37;1.20;99.90
13072;DHT22;6602;58.934;11.166;2023-10-31T05:01:39;1.10;99.90
13072;DHT22;6602;58.934;11.166;2023-10-31T05:06:41;1.20;99.90
13072;DHT22;6602;58.934;11.166;2023-10-31T05:11:42;1.10;99.90
13072;DHT22;6602;58.934;11.166;2023-10-31T05:16:46;1.10;99.90
13072;DHT22;6602;58.934;11.166;2023-10-31T05:21:47;1.10;99.90
13072;DHT22;6602;58.934;11.166;2023-10-31T05:26:48;1.10;99.90
13072;DHT22;6602;58.934;11.166;2023-10-31T05:31:49;1.20;99.90
13072;DHT22;6602;58.934;11.166;2023-10-31T05:36:51;1.20;99.90
13072;DHT22;6602;58.934;11.166;2023-10-31T05:42:12;1.10;99.90
13072;DHT22;6602;58.934;11.166;2023-10-31T05:47:17;1.10;99.90
13072;DHT22;6602;58.934;11.166;2023-10-31T05:52:19;1.20;99.90
13072;DHT22;6602;58.934;11.166;2023-10-31T05:57:20;1.20;99.90
13072;DHT22;6602;58.934;11.166;2023-10-31T06:02:21;1.00;99.90
13072;DHT22;6602;58.934;11.166;2023-10-31T06:07:22;1.10;99.90
13072;DHT22;6602;58.934;11.166;2023-10-31T06:12:24;1.10;99.90
13072;DHT22;6602;58.934;11.166;2023-10-31T06:17:25;1.10;99.90
13072;DHT22;6602;58.934;11.166;2023-10-31T06:22:30;1.00;99.90
13072;DHT22;6602;58.934;11.166;2023-10-31T06:27:33;0.90;99.90
13072;DHT22;6602;58.934;11.166;2023-10-31T06:32:37;1.00;99.90
13072;DHT22;6602;58.934;11.166;2023-10-31T06:37:41;1.10;99.90
13072;DHT22;6602;58.934;11.166;2023-10-31T06:42:42;1.10;99.90
13072;DHT22;6602;58.934;11.166;2023-10-31T06:47:44;1.00;99.90
13072;DHT22;6602;58.934;11.166;2023-10-31T06:52:45;1.00;99.90
13072;DHT22;6602;58.934;11.166;2023-10-31T06:57:45;1.10;99.90
13072;DHT22;6602;58.934;11.166;2023-10-31T07:02:48;1.10;99.90
13072;DHT22;6602;58.934;11.166;2023-10-31T07:07:51;1.10;99.90
13072;DHT22;6602;58.934;11.166;2023-10-31T07:13:13;1.10;99.90
13072;DHT22;6602;58.934;11.166;2023-10-31T07:18:17;1.10;99.90
13072;DHT22;6602;58.934;11.166;2023-10-31T07:23:23;1.00;99.90
13072;DHT22;6602;58.934;11.166;2023-10-31T07:28:25;1.00;99.90
13072;DHT22;6602;58.934;11.166;2023-10-31T07:33:26;1.10;99.90
13072;DHT22;6602;58.934;11.166;2023-10-31T07:38:27;1.20;99.90
13072;DHT22;6602;58.934;11.166;2023-10-31T07:43:28;1.20;99.90
13072;DHT22;6602;58.934;11.166;2023-10-31T07:48:29;1.20;99.90
13072;DHT22;6602;58.934;11.166;2023-10-31T07:53:30;1.30;99.90
13072;DHT22;6602;58.934;11.166;2023-10-31T07:58:30;1.30;99.90
13072;DHT22;6602;58.934;11.166;2023-10-31T08:03:31;1.30;99.90
13072;DHT22;6602;58.934;11.166;2023-10-31T08:08:32;1.40;99.90
13072;DHT22;6602;58.934;11.166;2023-10-31T08:13:39;1.30;99.90
13072;DHT22;6602;58.934;11.166;2023-10-31T08:18:40;1.40;99.90
13072;DHT22;6602;58.934;11.166;2023-10-31T08:24:05;1.50;99.90
13072;DHT22;6602;58.934;11.166;2023-10-31T08:29:11;1.60;99.90
13072;DHT22;6602;58.934;11.166;2023-10-31T08:34:36;1.70;99.90
13072;DHT22;6602;58.934;11.166;2023-10-31T08:39:43;1.70;99.90
13072;DHT22;6602;58.934;11.166;2023-10-31T08:44:44;1.70;99.90
13072;DHT22;6602;58.934;11.166;2023-10-31T08:49:48;1.70;99.90
13072;DHT22;6602;58.934;11.166;2023-10-31T08:54:50;1.70;99.90
13072;DHT22;6602;58.934;11.166;2023-10-31T08:59:57;1.70;99.90
13072;DHT22;6602;58.934;11.166;2023-10-31T09:05:01;1.70;99.90
13072;DHT22;6602;58.934;11.166;2023-10-31T09:10:02;1.70;99.90
13072;DHT22;6602;58.934;11.166;2023-10-31T09:15:06;1.70;99.90
13072;DHT22;6602;58.934;11.166;2023-10-31T09:20:11;1.80;99.90
13072;DHT22;6602;58.934;11.166;2023-10-31T09:25:29;1.70;99.90
13072;DHT22;6602;58.934;11.166;2023-10-31T09:30:43;1.70;99.90
13072;DHT22;6602;58.934;11.166;2023-10-31T09:36:06;1.80;99.90
13072;DHT22;6602;58.934;11.166;2023-10-31T09:41:07;1.90;99.90
13072;DHT22;6602;58.934;11.166;2023-10-31T09:46:08;2.00;99.90
13072;DHT22;6602;58.934;11.166;2023-10-31T09:51:10;2.10;99.90
13072;DHT22;6602;58.934;11.166;2023-10-31T09:56:15;2.10;99.90
13072;DHT22;6602;58.934;11.166;2023-10-31T10:01:22;2.10;99.90
13072;DHT22;6602;58.934;11.166;2023-10-31T10:06:32;2.00;99.90
13072;DHT22;6602;58.934;11.166;2023-10-31T10:11:40;2.10;99.90
13072;DHT22;6602;58.934;11.166;2023-10-31T10:16:41;2.10;99.90
13072;DHT22;6602;58.934;11.166;2023-10-31T10:21:51;2.10;99.90
13072;DHT22;6602;58.934;11.166;2023-10-31T10:26:52;2.20;99.90
13072;DHT22;6602;58.934;11.166;2023-10-31T10:31:54;2.20;99.90
13072;DHT22;6602;58.934;11.166;2023-10-31T10:36:58;2.20;99.90
13072;DHT22;6602;58.934;11.166;2023-10-31T10:42:01;2.30;99.90
13072;DHT22;6602;58.934;11.166;2023-10-31T10:47:05;2.40;99.90
13072;DHT22;6602;58.934;11.166;2023-10-31T10:52:49;2.50;99.90
13072;DHT22;6602;58.934;11.166;2023-10-31T10:58:09;2.40;99.90
13072;DHT22;6602;58.934;11.166;2023-10-31T11:03:15;2.50;99.90
13072;DHT22;6602;58.934;11.166;2023-10-31T11:08:23;2.50;99.90
13072;DHT22;6602;58.934;11.166;2023-10-31T11:13:26;2.50;99.90
13072;DHT22;6602;58.934;11.166;2023-10-31T11:18:27;2.50;99.90
13072;DHT22;6602;58.934;11.166;2023-10-31T11:23:38;2.60;99.90
13072;DHT22;6602;58.934;11.166;2023-10-31T11:29:06;2.60;99.90
13072;DHT22;6602;58.934;11.166;2023-10-31T11:34:16;2.60;99.90
13072;DHT22;6602;58.934;11.166;2023-10-31T11:39:25;2.70;99.90
13072;DHT22;6602;58.934;11.166;2023-10-31T11:44:30;2.60;99.90
13072;DHT22;6602;58.934;11.166;2023-10-31T11:49:47;2.70;99.90
13072;DHT22;6602;58.934;11.166;2023-10-31T11:54:57;2.50;99.90
13072;DHT22;6602;58.934;11.166;2023-10-31T12:00:24;2.70;99.90
13072;DHT22;6602;58.934;11.166;2023-10-31T12:05:31;2.60;99.90
13072;DHT22;6602;58.934;11.166;2023-10-31T12:10:34;2.70;99.90
13072;DHT22;6602;58.934;11.166;2023-10-31T12:15:51;2.60;99.90
13072;DHT22;6602;58.934;11.166;2023-10-31T12:21:00;2.50;99.90
13072;DHT22;6602;58.934;11.166;2023-10-31T12:26:13;2.60;99.90
13072;DHT22;6602;58.934;11.166;2023-10-31T12:31:18;2.70;99.90
13072;DHT22;6602;58.934;11.166;2023-10-31T12:36:29;2.60;99.90
13072;DHT22;6602;58.934;11.166;2023-10-31T12:41:40;2.60;99.90
13072;DHT22;6602;58.934;11.166;2023-10-31T12:46:54;2.60;99.90
13072;DHT22;6602;58.934;11.166;2023-10-31T12:52:04;2.60;99.90
13072;DHT22;6602;58.934;11.166;2023-10-31T12:57:09;2.60;99.90
13072;DHT22;6602;58.934;11.166;2023-10-31T13:02:31;2.60;99.90
13072;DHT22;6602;58.934;11.166;2023-10-31T13:07:36;2.60;99.90
13072;DHT22;6602;58.934;11.166;2023-10-31T13:12:37;2.60;99.90
13072;DHT22;6602;58.934;11.166;2023-10-31T13:17:40;2.50;99.90
13072;DHT22;6602;58.934;11.166;2023-10-31T13:22:45;2.50;99.90
13072;DHT22;6602;58.934;11.166;2023-10-31T13:27:47;2.50;99.90
13072;DHT22;6602;58.934;11.166;2023-10-31T13:32:52;2.50;99.90
13072;DHT22;6602;58.934;11.166;2023-10-31T13:37:56;2.50;99.90
13072;DHT22;6602;58.934;11.166;2023-10-31T13:43:00;2.60;99.90
13072;DHT22;6602;58.934;11.166;2023-10-31T13:48:07;2.40;99.90
13072;DHT22;6602;58.934;11.166;2023-10-31T13:53:11;2.50;99.90
13072;DHT22;6602;58.934;11.166;2023-10-31T13:58:18;2.40;99.90
13072;DHT22;6602;58.934;11.166;2023-10-31T14:03:23;2.50;99.90
13072;DHT22;6602;58.934;11.166;2023-10-31T14:08:30;2.60;99.90
13072;DHT22;6602;58.934;11.166;2023-10-31T14:13:45;2.50;99.90
13072;DHT22;6602;58.934;11.166;2023-10-31T14:18:50;2.50;99.90
13072;DHT22;6602;58.934;11.166;2023-10-31T14:23:56;2.40;99.90
13072;DHT22;6602;58.934;11.166;2023-10-31T14:29:08;2.50;99.90
13072;DHT22;6602;58.934;11.166;2023-10-31T14:34:29;2.40;99.90
13072;DHT22;6602;58.934;11.166;2023-10-31T14:39:43;2.30;99.90
13072;DHT22;6602;58.934;11.166;2023-10-31T14:45:04;2.40;99.90
13072;DHT22;6602;58.934;11.166;2023-10-31T14:50:12;2.30;99.90
13072;DHT22;6602;58.934;11.166;2023-10-31T14:55:15;2.30;99.90
13072;DHT22;6602;58.934;11.166;2023-10-31T15:00:19;2.10;99.90
13072;DHT22;6602;58.934;11.166;2023-10-31T15:05:31;2.10;99.90
13072;DHT22;6602;58.934;11.166;2023-10-31T15:10:39;2.10;99.90
13072;DHT22;6602;58.934;11.166;2023-10-31T15:15:53;2.10;99.90
13072;DHT22;6602;58.934;11.166;2023-10-31T15:21:04;2.00;99.90
13072;DHT22;6602;58.934;11.166;2023-10-31T15:26:20;2.10;99.90
13072;DHT22;6602;58.934;11.166;2023-10-31T15:31:43;2.00;99.90
13072;DHT22;6602;58.934;11.166;2023-10-31T15:37:05;2.00;99.90
13072;DHT22;6602;58.934;11.166;2023-10-31T15:42:06;1.90;99.90
13072;DHT22;6602;58.934;11.166;2023-10-31T15:47:07;2.00;99.90
13072;DHT22;6602;58.934;11.166;2023-10-31T15:52:08;1.90;99.90
13072;DHT22;6602;58.934;11.166;2023-10-31T15:57:09;1.80;99.90
13072;DHT22;6602;58.934;11.166;2023-10-31T16:02:16;1.80;99.90
13072;DHT22;6602;58.934;11.166;2023-10-31T16:07:18;1.80;99.90
13072;DHT22;6602;58.934;11.166;2023-10-31T16:12:21;1.80;99.90
13072;DHT22;6602;58.934;11.166;2023-10-31T16:17:22;2.00;99.90
13072;DHT22;6602;58.934;11.166;2023-10-31T16:22:23;1.80;99.90
13072;DHT22;6602;58.934;11.166;2023-10-31T16:27:24;1.80;99.90
13072;DHT22;6602;58.934;11.166;2023-10-31T16:32:27;1.90;99.90
13072;DHT22;6602;58.934;11.166;2023-10-31T16:37:28;1.80;99.90
13072;DHT22;6602;58.934;11.166;2023-10-31T16:42:34;1.80;99.90
13072;DHT22;6602;58.934;11.166;2023-10-31T16:47:41;1.80;99.90
13072;DHT22;6602;58.934;11.166;2023-10-31T16:52:42;1.80;99.90
13072;DHT22;6602;58.934;11.166;2023-10-31T16:57:57;1.80;99.90
13072;DHT22;6602;58.934;11.166;2023-10-31T17:02:57;1.90;99.90
13072;DHT22;6602;58.934;11.166;2023-10-31T17:07:58;1.90;99.90
13072;DHT22;6602;58.934;11.166;2023-10-31T17:13:19;1.70;99.90
13072;DHT22;6602;58.934;11.166;2023-10-31T17:18:28;1.80;99.90
13072;DHT22;6602;58.934;11.166;2023-10-31T17:23:44;1.70;99.90
13072;DHT22;6602;58.934;11.166;2023-10-31T17:28:48;1.70;99.90
13072;DHT22;6602;58.934;11.166;2023-10-31T17:33:52;1.80;99.90
13072;DHT22;6602;58.934;11.166;2023-10-31T17:39:00;1.80;99.90
13072;DHT22;6602;58.934;11.166;2023-10-31T17:44:04;1.70;99.90
13072;DHT22;6602;58.934;11.166;2023-10-31T17:49:10;1.70;99.90
13072;DHT22;6602;58.934;11.166;2023-10-31T17:54:14;1.70;99.90
13072;DHT22;6602;58.934;11.166;2023-10-31T17:59:38;1.70;99.90
13072;DHT22;6602;58.934;11.166;2023-10-31T18:04:45;1.60;99.90
13072;DHT22;6602;58.934;11.166;2023-10-31T18:09:49;1.60;99.90
13072;DHT22;6602;58.934;11.166;2023-10-31T18:15:02;1.60;99.90
13072;DHT22;6602;58.934;11.166;2023-10-31T18:20:10;1.70;99.90
13072;DHT22;6602;58.934;11.166;2023-10-31T18:25:11;1.60;99.90
13072;DHT22;6602;58.934;11.166;2023-10-31T18:30:15;1.60;99.90
13072;DHT22;6602;58.934;11.166;2023-10-31T18:35:18;1.60;99.90
13072;DHT22;6602;58.934;11.166;2023-10-31T18:40:22;1.60;99.90
13072;DHT22;6602;58.934;11.166;2023-10-31T18:45:26;1.60;99.90
13072;DHT22;6602;58.934;11.166;2023-10-31T18:50:31;1.50;99.90
13072;DHT22;6602;58.934;11.166;2023-10-31T18:55:38;1.60;99.90
13072;DHT22;6602;58.934;11.166;2023-10-31T19:00:52;1.50;99.90
13072;DHT22;6602;58.934;11.166;2023-10-31T19:06:13;1.50;99.90
13072;DHT22;6602;58.934;11.166;2023-10-31T19:11:17;1.50;99.90
13072;DHT22;6602;58.934;11.166;2023-10-31T19:16:18;1.50;99.90
13072;DHT22;6602;58.934;11.166;2023-10-31T19:21:20;1.50;99.90
13072;DHT22;6602;58.934;11.166;2023-10-31T19:26:21;1.50;99.90
13072;DHT22;6602;58.934;11.166;2023-10-31T19:31:22;1.50;99.90
13072;DHT22;6602;58.934;11.166;2023-10-31T19:36:24;1.50;99.90
13072;DHT22;6602;58.934;11.166;2023-10-31T19:41:30;1.50;99.90
13072;DHT22;6602;58.934;11.166;2023-10-31T19:46:34;1.60;99.90
13072;DHT22;6602;58.934;11.166;2023-10-31T19:51:41;1.60;99.90
13072;DHT22;6602;58.934;11.166;2023-10-31T19:56:45;1.60;99.90
13072;DHT22;6602;58.934;11.166;2023-10-31T20:01:47;1.50;99.90
13072;DHT22;6602;58.934;11.166;2023-10-31T20:06:47;1.50;99.90
13072;DHT22;6602;58.934;11.166;2023-10-31T20:11:48;1.40;99.90
13072;DHT22;6602;58.934;11.166;2023-10-31T20:16:49;1.40;99.90
13072;DHT22;6602;58.934;11.166;2023-10-31T20:21:50;1.40;99.90
13072;DHT22;6602;58.934;11.166;2023-10-31T20:26:52;1.40;99.90
13072;DHT22;6602;58.934;11.166;2023-10-31T20:31:53;1.30;99.90
13072;DHT22;6602;58.934;11.166;2023-10-31T20:36:56;1.30;99.90
13072;DHT22;6602;58.934;11.166;2023-10-31T20:41:57;1.30;99.90
13072;DHT22;6602;58.934;11.166;2023-10-31T20:46:59;1.30;99.90
13072;DHT22;6602;58.934;11.166;2023-10-31T20:52:00;1.30;99.90
13072;DHT22;6602;58.934;11.166;2023-10-31T20:57:02;1.30;99.90
13072;DHT22;6602;58.934;11.166;2023-10-31T21:02:04;1.30;99.90
13072;DHT22;6602;58.934;11.166;2023-10-31T21:07:07;1.30;99.90
13072;DHT22;6602;58.934;11.166;2023-10-31T21:12:11;1.40;99.90
13072;DHT22;6602;58.934;11.166;2023-10-31T21:17:12;1.40;99.90
13072;DHT22;6602;58.934;11.166;2023-10-31T21:22:13;1.40;99.90
13072;DHT22;6602;58.934;11.166;2023-10-31T21:27:13;1.30;99.90
13072;DHT22;6602;58.934;11.166;2023-10-31T21:32:14;1.20;99.90
13072;DHT22;6602;58.934;11.166;2023-10-31T21:37:16;1.30;99.90
13072;DHT22;6602;58.934;11.166;2023-10-31T21:42:20;1.40;99.90
13072;DHT22;6602;58.934;11.166;2023-10-31T21:47:21;1.20;99.90
13072;DHT22;6602;58.934;11.166;2023-10-31T21:52:23;1.30;99.90
13072;DHT22;6602;58.934;11.166;2023-10-31T21:57:26;1.20;99.90
13072;DHT22;6602;58.934;11.166;2023-10-31T22:02:33;1.20;99.90
13072;DHT22;6602;58.934;11.166;2023-10-31T22:07:37;1.20;99.90
13072;DHT22;6602;58.934;11.166;2023-10-31T22:12:40;1.30;99.90
13072;DHT22;6602;58.934;11.166;2023-10-31T22:17:42;1.20;99.90
13072;DHT22;6602;58.934;11.166;2023-10-31T22:22:47;1.20;99.90
13072;DHT22;6602;58.934;11.166;2023-10-31T22:27:47;1.20;99.90
13072;DHT22;6602;58.934;11.166;2023-10-31T22:32:51;1.10;99.90
13072;DHT22;6602;58.934;11.166;2023-10-31T22:37:55;1.20;99.90
13072;DHT22;6602;58.934;11.166;2023-10-31T22:43:11;1.30;99.90
13072;DHT22;6602;58.934;11.166;2023-10-31T22:48:18;1.10;99.90
13072;DHT22;6602;58.934;11.166;2023-10-31T22:53:22;1.30;99.90
13072;DHT22;6602;58.934;11.166;2023-10-31T22:58:26;1.10;99.90
13072;DHT22;6602;58.934;11.166;2023-10-31T23:03:44;1.20;99.90
13072;DHT22;6602;58.934;11.166;2023-10-31T23:08:52;1.10;99.90
13072;DHT22;6602;58.934;11.166;2023-10-31T23:14:14;1.10;99.90
13072;DHT22;6602;58.934;11.166;2023-10-31T23:19:25;1.00;99.90
13072;DHT22;6602;58.934;11.166;2023-10-31T23:24:29;1.00;99.90
13072;DHT22;6602;58.934;11.166;2023-10-31T23:29:32;1.10;99.90
13072;DHT22;6602;58.934;11.166;2023-10-31T23:34:45;1.00;99.90
13072;DHT22;6602;58.934;11.166;2023-10-31T23:39:56;1.10;99.90
13072;DHT22;6602;58.934;11.166;2023-10-31T23:45:04;1.10;99.90
13072;DHT22;6602;58.934;11.166;2023-10-31T23:50:17;1.10;99.90
13072;DHT22;6602;58.934;11.166;2023-10-31T23:55:29;1.10;99.90
